createdAt,value
2023-03-11T00:02:15.355Z,98207.72
2023-03-11T00:04:41.872Z,98197.63
2023-03-11T00:07:09.367Z,98205.22
2023-03-11T00:09:35.839Z,98194.50
2023-03-11T00:12:02.795Z,98203.47
2023-03-11T00:14:29.527Z,98200.25
2023-03-11T00:16:56.135Z,98201.66
2023-03-11T00:19:22.756Z,98204.00
2023-03-11T00:21:49.485Z,98200.03
2023-03-11T00:24:16.031Z,98192.06
2023-03-11T00:26:42.554Z,98199.53
2023-03-11T00:29:09.032Z,98193.56
2023-03-11T00:31:35.494Z,98192.59
2023-03-11T00:34:02.060Z,98185.38
2023-03-11T00:36:33.855Z,98187.97
2023-03-11T00:39:04.404Z,98192.38
2023-03-11T00:41:30.862Z,98195.63
2023-03-11T00:43:57.363Z,98180.31
2023-03-11T00:46:23.930Z,98176.09
2023-03-11T00:48:51.414Z,98181.50
2023-03-11T00:51:18.216Z,98174.59
2023-03-11T00:53:45.946Z,98177.19
2023-03-11T00:56:14.243Z,98183.78
2023-03-11T00:58:41.244Z,98187.84
2023-03-11T01:01:18.507Z,98186.03
2023-03-11T01:03:45.130Z,98172.22
2023-03-11T01:06:13.537Z,98179.44
2023-03-11T01:08:40.427Z,98170.06
2023-03-11T01:11:07.756Z,98170.75
2023-03-11T01:13:35.070Z,98169.44
2023-03-11T01:16:02.225Z,98176.63
2023-03-11T01:18:29.021Z,98182.25
2023-03-11T01:20:55.480Z,98184.75
2023-03-11T01:23:22.306Z,98182.78
2023-03-11T01:25:48.991Z,98181.69
2023-03-11T01:28:15.451Z,98180.16
2023-03-11T01:30:42.670Z,98181.16
2023-03-11T01:33:15.171Z,98174.38
2023-03-11T01:35:42.299Z,98172.75
2023-03-11T01:38:09.161Z,98166.94
2023-03-11T01:40:39.686Z,98174.69
2023-03-11T01:43:28.060Z,98171.03
2023-03-11T01:45:54.426Z,98178.34
2023-03-11T01:48:20.875Z,98165.75
2023-03-11T01:50:49.904Z,98168.00
2023-03-11T01:53:17.619Z,98161.31
2023-03-11T01:55:45.009Z,98164.56
2023-03-11T01:58:15.773Z,98162.06
2023-03-11T02:00:42.969Z,98162.50
2023-03-11T02:03:16.083Z,98166.72
2023-03-11T02:05:42.687Z,98161.88
2023-03-11T02:08:09.187Z,98155.06
2023-03-11T02:10:38.186Z,98159.19
2023-03-11T02:13:04.818Z,98164.25
2023-03-11T02:15:31.331Z,98155.59
2023-03-11T02:17:58.424Z,98153.88
2023-03-11T02:20:54.308Z,98162.38
2023-03-11T02:23:25.193Z,98165.19
2023-03-11T02:26:07.697Z,98158.06
2023-03-11T02:28:35.308Z,98163.03
2023-03-11T02:31:01.806Z,98165.41
2023-03-11T02:33:31.570Z,98160.25
2023-03-11T02:35:58.330Z,98171.75
2023-03-11T02:38:25.068Z,98174.97
2023-03-11T02:41:02.538Z,98167.44
2023-03-11T02:43:37.482Z,98174.69
2023-03-11T02:46:04.895Z,98166.16
2023-03-11T02:48:31.568Z,98172.63
2023-03-11T02:50:58.415Z,98173.28
2023-03-11T02:53:26.800Z,98178.88
2023-03-11T02:55:53.234Z,98180.47
2023-03-11T02:58:19.700Z,98180.25
2023-03-11T03:00:46.464Z,98181.13
2023-03-11T03:03:13.016Z,98184.81
2023-03-11T03:05:39.501Z,98188.66
2023-03-11T03:08:06.051Z,98188.13
2023-03-11T03:10:32.512Z,98193.72
2023-03-11T03:12:58.985Z,98187.38
2023-03-11T03:15:25.811Z,98194.50
2023-03-11T03:17:52.391Z,98191.03
2023-03-11T03:20:19.476Z,98199.88
2023-03-11T03:22:45.971Z,98207.84
2023-03-11T03:25:12.592Z,98201.03
2023-03-11T03:27:39.357Z,98185.97
2023-03-11T03:30:07.161Z,98195.22
2023-03-11T03:32:33.840Z,98196.16
2023-03-11T03:35:01.190Z,98205.22
2023-03-11T03:37:28.617Z,98197.50
2023-03-11T03:39:55.256Z,98194.34
2023-03-11T03:42:21.825Z,98203.56
2023-03-11T03:44:48.309Z,98195.09
2023-03-11T03:47:14.873Z,98195.75
2023-03-11T03:49:41.484Z,98199.44
2023-03-11T03:52:08.710Z,98204.16
2023-03-11T03:54:35.188Z,98213.09
2023-03-11T03:57:02.141Z,98208.97
2023-03-11T03:59:28.856Z,98210.88
2023-03-11T04:01:55.430Z,98204.13
2023-03-11T04:04:22.534Z,98217.66
2023-03-11T04:06:51.741Z,98218.03
2023-03-11T04:09:18.685Z,98213.66
2023-03-11T04:11:45.154Z,98219.81
2023-03-11T04:14:11.705Z,98226.38
2023-03-11T04:16:38.195Z,98221.72
2023-03-11T04:19:05.782Z,98221.25
2023-03-11T04:21:32.961Z,98233.59
2023-03-11T04:23:59.505Z,98229.44
2023-03-11T04:26:26.125Z,98227.38
2023-03-11T04:28:52.841Z,98236.06
2023-03-11T04:31:19.493Z,98230.34
2023-03-11T04:33:45.996Z,98233.25
2023-03-11T04:36:13.166Z,98236.72
2023-03-11T04:38:39.671Z,98231.25
2023-03-11T04:41:06.858Z,98235.28
2023-03-11T04:43:33.993Z,98235.59
2023-03-11T04:46:00.521Z,98247.88
2023-03-11T04:48:53.532Z,98256.06
2023-03-11T04:51:21.249Z,98261.47
2023-03-11T04:53:47.785Z,98268.28
2023-03-11T04:56:14.218Z,98267.13
2023-03-11T04:58:40.725Z,98269.88
2023-03-11T05:01:07.263Z,98264.94
2023-03-11T05:03:33.818Z,98267.84
2023-03-11T05:06:01.672Z,98271.56
2023-03-11T05:08:28.652Z,98281.78
2023-03-11T05:10:55.148Z,98283.22
2023-03-11T05:13:21.912Z,98290.31
2023-03-11T05:15:48.555Z,98278.50
2023-03-11T05:18:15.412Z,98283.66
2023-03-11T05:20:41.866Z,98284.72
2023-03-11T05:23:13.302Z,98283.03
2023-03-11T05:25:40.746Z,98289.47
2023-03-11T05:28:07.365Z,98294.22
2023-03-11T05:30:33.976Z,98287.69
2023-03-11T05:33:00.516Z,98290.22
2023-03-11T05:35:27.379Z,98292.09
2023-03-11T05:37:54.914Z,98292.22
2023-03-11T05:40:21.761Z,98308.03
2023-03-11T05:42:48.304Z,98304.06
2023-03-11T05:45:16.117Z,98320.41
2023-03-11T05:47:42.694Z,98331.13
2023-03-11T05:50:11.496Z,98323.00
2023-03-11T05:52:38.153Z,98330.69
2023-03-11T05:55:05.072Z,98334.31
2023-03-11T05:57:51.537Z,98343.78
2023-03-11T06:00:24.023Z,98354.66
2023-03-11T06:02:54.200Z,98351.22
2023-03-11T06:05:21.388Z,98369.75
2023-03-11T06:07:48.322Z,98355.34
2023-03-11T06:10:14.899Z,98374.03
2023-03-11T06:12:41.417Z,98373.47
2023-03-11T06:15:08.250Z,98380.97
2023-03-11T06:17:35.418Z,98393.19
2023-03-11T06:20:02.000Z,98394.72
2023-03-11T06:22:28.506Z,98392.72
2023-03-11T06:24:55.024Z,98403.50
2023-03-11T06:27:21.474Z,98402.47
2023-03-11T06:29:54.217Z,98414.78
2023-03-11T06:32:23.939Z,98417.63
2023-03-11T06:34:52.017Z,98419.38
2023-03-11T06:37:18.960Z,98415.03
2023-03-11T06:39:46.043Z,98423.22
2023-03-11T06:42:15.492Z,98423.84
2023-03-11T06:44:42.732Z,98427.19
2023-03-11T06:47:09.309Z,98424.47
2023-03-11T06:49:37.072Z,98452.28
2023-03-11T06:52:03.755Z,98447.28
2023-03-11T06:54:30.252Z,98448.81
2023-03-11T06:56:57.102Z,98444.72
2023-03-11T06:59:24.201Z,98446.81
2023-03-11T07:01:55.822Z,98461.09
2023-03-11T07:04:23.011Z,98466.53
2023-03-11T07:06:49.526Z,98474.31
2023-03-11T07:09:16.085Z,98475.69
2023-03-11T07:11:42.903Z,98488.47
2023-03-11T07:14:09.701Z,98483.88
2023-03-11T07:16:38.930Z,98489.94
2023-03-11T07:19:05.585Z,98493.72
2023-03-11T07:21:32.480Z,98503.47
2023-03-11T07:24:00.895Z,98502.09
2023-03-11T07:26:29.979Z,98501.28
2023-03-11T07:28:56.913Z,98512.84
2023-03-11T07:31:25.959Z,98521.22
2023-03-11T07:33:53.031Z,98529.69
2023-03-11T07:36:23.549Z,98527.56
2023-03-11T07:38:55.460Z,98535.19
2023-03-11T07:41:21.959Z,98542.16
2023-03-11T07:43:48.437Z,98532.66
2023-03-11T07:46:18.681Z,98538.25
2023-03-11T07:48:45.904Z,98540.13
2023-03-11T07:51:21.016Z,98554.56
2023-03-11T07:53:48.225Z,98555.13
2023-03-11T07:56:16.588Z,98564.84
2023-03-11T07:58:45.711Z,98564.84
2023-03-11T08:01:19.608Z,98574.28
2023-03-11T08:03:48.133Z,98577.59
2023-03-11T08:06:18.421Z,98582.59
2023-03-11T08:08:45.268Z,98593.63
2023-03-11T08:11:13.311Z,98610.97
2023-03-11T08:13:41.179Z,98608.19
2023-03-11T08:16:09.712Z,98615.81
2023-03-11T08:18:36.595Z,98614.44
2023-03-11T08:21:12.547Z,98629.78
2023-03-11T08:23:39.407Z,98624.63
2023-03-11T08:26:07.286Z,98622.91
2023-03-11T08:28:33.995Z,98630.09
2023-03-11T08:31:00.738Z,98638.47
2023-03-11T08:33:27.855Z,98646.66
2023-03-11T08:35:54.831Z,98651.97
2023-03-11T08:38:22.923Z,98665.16
2023-03-11T08:40:49.398Z,98653.59
2023-03-11T08:43:16.137Z,98661.38
2023-03-11T08:45:42.897Z,98669.44
2023-03-11T08:48:10.746Z,98657.53
2023-03-11T08:50:52.948Z,98661.81
2023-03-11T08:53:20.253Z,98669.91
2023-03-11T08:55:46.743Z,98666.50
2023-03-11T08:58:13.221Z,98675.19
2023-03-11T09:00:39.766Z,98683.09
2023-03-11T09:03:06.311Z,98680.53
2023-03-11T09:05:32.950Z,98687.06
2023-03-11T09:08:00.574Z,98685.84
2023-03-11T09:10:27.044Z,98689.69
2023-03-11T09:12:53.486Z,98698.94
2023-03-11T09:15:19.990Z,98704.53
2023-03-11T09:17:46.552Z,98713.84
2023-03-11T09:20:14.028Z,98731.00
2023-03-11T09:22:40.656Z,98725.22
2023-03-11T09:25:07.860Z,98730.66
2023-03-11T09:27:34.397Z,98734.94
2023-03-11T09:30:01.065Z,98743.28
2023-03-11T09:32:27.683Z,98750.88
2023-03-11T09:34:54.173Z,98753.63
2023-03-11T09:37:20.667Z,98762.16
2023-03-11T09:39:47.277Z,98761.81
2023-03-11T09:42:44.308Z,98764.25
2023-03-11T09:45:17.659Z,98775.69
2023-03-11T09:48:02.466Z,98771.91
2023-03-11T09:50:34.296Z,98784.66
2023-03-11T09:53:14.257Z,98783.44
2023-03-11T09:55:40.713Z,98798.34
2023-03-11T09:58:13.395Z,98792.41
2023-03-11T10:00:40.814Z,98783.13
2023-03-11T10:03:27.420Z,98800.97
2023-03-11T10:05:58.874Z,98807.34
2023-03-11T10:08:33.360Z,98807.03
2023-03-11T10:11:20.340Z,98817.22
2023-03-11T10:13:57.828Z,98827.44
2023-03-11T10:16:51.275Z,98829.72
2023-03-11T10:19:23.909Z,98831.88
2023-03-11T10:22:08.227Z,98834.13
2023-03-11T10:24:34.631Z,98845.97
2023-03-11T10:27:09.891Z,98852.84
2023-03-11T10:29:49.952Z,98844.41
2023-03-11T10:32:20.877Z,98851.72
2023-03-11T10:34:53.627Z,98849.44
2023-03-11T10:37:23.653Z,98856.78
2023-03-11T10:39:50.286Z,98855.44
2023-03-11T10:42:20.464Z,98867.56
2023-03-11T10:44:46.970Z,98871.38
2023-03-11T10:47:25.340Z,98855.97
2023-03-11T10:49:55.163Z,98864.47
2023-03-11T10:52:21.730Z,98869.66
2023-03-11T10:54:58.753Z,98881.81
2023-03-11T10:57:26.777Z,98885.34
2023-03-11T10:59:55.325Z,98885.97
2023-03-11T11:02:28.805Z,98898.66
2023-03-11T11:05:23.039Z,98897.13
2023-03-11T11:08:02.740Z,98907.94
2023-03-11T11:10:29.771Z,98911.75
2023-03-11T11:13:00.760Z,98913.41
2023-03-11T11:15:32.888Z,98920.88
2023-03-11T11:18:02.122Z,98919.66
2023-03-11T11:20:30.835Z,98921.78
2023-03-11T11:23:03.745Z,98929.84
2023-03-11T11:25:38.424Z,98925.31
2023-03-11T11:28:19.618Z,98938.56
2023-03-11T11:31:07.077Z,98939.94
2023-03-11T11:33:40.653Z,98943.13
2023-03-11T11:36:14.392Z,98934.91
2023-03-11T11:38:41.416Z,98934.13
2023-03-11T11:41:14.953Z,98953.81
2023-03-11T11:44:11.271Z,98966.91
2023-03-11T11:47:01.301Z,98950.44
2023-03-11T11:49:29.830Z,98967.91
2023-03-11T11:52:05.870Z,98973.56
2023-03-11T11:54:53.825Z,98972.44
2023-03-11T11:57:22.278Z,98964.97
2023-03-11T11:59:49.223Z,98964.06
2023-03-11T12:02:50.628Z,98982.47
2023-03-11T12:05:34.663Z,98984.88
2023-03-11T12:08:26.186Z,98995.78
2023-03-11T12:10:56.582Z,99007.19
2023-03-11T12:14:00.366Z,98993.28
2023-03-11T12:16:51.122Z,99012.19
2023-03-11T12:19:30.614Z,99019.25
2023-03-11T12:22:32.266Z,99020.19
2023-03-11T12:25:05.046Z,99032.50
2023-03-11T12:27:41.639Z,99032.78
2023-03-11T12:30:17.772Z,99042.28
2023-03-11T12:32:48.290Z,99044.94
2023-03-11T12:35:24.340Z,99054.28
2023-03-11T12:38:29.727Z,99048.34
2023-03-11T12:40:59.481Z,99053.53
2023-03-11T12:43:52.220Z,99049.28
2023-03-11T12:46:19.657Z,99046.97
2023-03-11T12:48:51.004Z,99056.75
2023-03-11T12:51:26.918Z,99054.75
2023-03-11T12:53:54.637Z,99059.78
2023-03-11T12:56:31.882Z,99068.31
2023-03-11T12:59:13.738Z,99073.66
2023-03-11T13:02:22.335Z,99070.13
2023-03-11T13:05:14.612Z,99076.53
2023-03-11T13:07:59.793Z,99077.91
2023-03-11T13:10:46.554Z,99072.56
2023-03-11T13:13:35.280Z,99082.50
2023-03-11T13:16:13.941Z,99090.41
2023-03-11T13:18:48.084Z,99099.72
2023-03-11T13:21:32.476Z,99099.72
2023-03-11T13:24:27.137Z,99114.31
2023-03-11T13:26:59.567Z,99116.00
2023-03-11T13:29:35.849Z,99113.72
2023-03-11T13:32:20.753Z,99126.69
2023-03-11T13:34:54.444Z,99132.47
2023-03-11T13:37:38.740Z,99126.38
2023-03-11T13:40:30.027Z,99134.91
2023-03-11T13:43:03.864Z,99134.13
2023-03-11T13:45:34.375Z,99148.31
2023-03-11T13:48:04.880Z,99148.16
2023-03-11T13:50:36.296Z,99161.88
2023-03-11T13:53:08.423Z,99157.00
2023-03-11T13:55:40.322Z,99151.38
2023-03-11T13:58:23.510Z,99165.69
2023-03-11T14:00:53.189Z,99162.19
2023-03-11T14:03:22.308Z,99174.06
2023-03-11T14:05:56.130Z,99179.09
2023-03-11T14:08:23.417Z,99191.28
2023-03-11T14:11:12.219Z,99191.16
2023-03-11T14:13:50.161Z,99186.75
2023-03-11T14:16:30.490Z,99183.09
2023-03-11T14:19:12.301Z,99198.94
2023-03-11T14:21:43.003Z,99207.16
2023-03-11T14:24:17.634Z,99216.28
2023-03-11T14:26:47.917Z,99219.91
2023-03-11T14:29:19.261Z,99225.81
2023-03-11T14:31:47.203Z,99222.78
2023-03-11T14:34:15.593Z,99205.16
2023-03-11T14:36:45.029Z,99216.91
2023-03-11T14:39:33.832Z,99225.56
2023-03-11T14:42:27.218Z,99225.22
2023-03-11T14:45:14.153Z,99237.66
2023-03-11T14:47:44.684Z,99235.09
2023-03-11T14:50:17.958Z,99243.69
2023-03-11T14:52:48.845Z,99242.66
2023-03-11T14:55:18.997Z,99238.69
2023-03-11T14:57:49.745Z,99247.38
2023-03-11T15:00:24.740Z,99252.84
2023-03-11T15:03:03.406Z,99259.72
2023-03-11T15:05:50.924Z,99257.75
2023-03-11T15:08:20.027Z,99257.63
2023-03-11T15:11:07.055Z,99265.41
2023-03-11T15:13:34.692Z,99268.00
2023-03-11T15:16:03.815Z,99264.66
2023-03-11T15:18:33.785Z,99277.03
2023-03-11T15:21:05.379Z,99290.91
2023-03-11T15:23:34.034Z,99285.72
2023-03-11T15:26:00.673Z,99284.34
2023-03-11T15:28:32.124Z,99284.19
2023-03-11T15:31:20.291Z,99288.75
2023-03-11T15:33:47.158Z,99296.34
2023-03-11T15:37:06.728Z,99297.88
2023-03-11T15:39:33.568Z,99303.78
2023-03-11T15:42:03.883Z,99308.66
2023-03-11T15:44:48.790Z,99309.94
2023-03-11T15:47:20.771Z,99304.03
2023-03-11T15:49:47.735Z,99314.72
2023-03-11T15:52:14.394Z,99317.13
2023-03-11T15:54:41.297Z,99322.28
2023-03-11T15:57:22.990Z,99326.56
2023-03-11T15:59:50.788Z,99331.72
2023-03-11T16:02:28.939Z,99327.75
2023-03-11T16:04:56.639Z,99328.53
2023-03-11T16:07:38.094Z,99327.94
2023-03-11T16:10:06.966Z,99328.09
2023-03-11T16:12:33.418Z,99341.66
2023-03-11T16:14:59.936Z,99342.91
2023-03-11T16:17:28.656Z,99351.91
2023-03-11T16:20:00.654Z,99360.44
2023-03-11T16:22:37.083Z,99360.25
2023-03-11T16:25:04.646Z,99363.72
2023-03-11T16:27:31.113Z,99378.06
2023-03-11T16:29:59.180Z,99377.66
2023-03-11T16:32:25.724Z,99380.59
2023-03-11T16:34:52.261Z,99381.38
2023-03-11T16:37:21.742Z,99383.94
2023-03-11T16:39:52.647Z,99389.56
2023-03-11T16:42:24.003Z,99391.28
2023-03-11T16:44:51.035Z,99396.31
2023-03-11T16:47:18.160Z,99402.00
2023-03-11T16:49:44.757Z,99395.56
2023-03-11T16:52:11.265Z,99403.59
2023-03-11T16:54:37.789Z,99408.84
2023-03-11T16:57:04.277Z,99417.22
2023-03-11T16:59:30.779Z,99415.81
2023-03-11T17:01:57.381Z,99419.38
2023-03-11T17:04:23.918Z,99435.88
2023-03-11T17:06:50.366Z,99424.47
2023-03-11T17:09:16.847Z,99424.41
2023-03-11T17:11:43.389Z,99426.31
2023-03-11T17:14:16.227Z,99432.44
2023-03-11T17:16:44.996Z,99441.28
2023-03-11T17:19:11.560Z,99442.31
2023-03-11T17:21:38.023Z,99440.03
2023-03-11T17:24:04.840Z,99439.84
2023-03-11T17:26:31.711Z,99442.00
2023-03-11T17:28:58.490Z,99447.44
2023-03-11T17:31:25.018Z,99449.47
2023-03-11T17:33:51.589Z,99445.41
2023-03-11T17:36:18.600Z,99449.41
2023-03-11T17:38:46.364Z,99463.41
2023-03-11T17:41:15.717Z,99467.53
2023-03-11T17:43:43.113Z,99448.50
2023-03-11T17:46:12.320Z,99453.47
2023-03-11T17:48:38.776Z,99465.44
2023-03-11T17:51:10.306Z,99456.44
2023-03-11T17:53:38.261Z,99464.84
2023-03-11T17:56:06.048Z,99469.28
2023-03-11T17:58:32.995Z,99468.22
2023-03-11T18:00:59.560Z,99481.16
2023-03-11T18:03:26.043Z,99476.97
2023-03-11T18:05:59.649Z,99483.66
2023-03-11T18:08:26.153Z,99485.28
2023-03-11T18:10:54.483Z,99492.56
2023-03-11T18:13:21.372Z,99490.16
2023-03-11T18:15:57.215Z,99486.16
2023-03-11T18:18:23.887Z,99492.28
2023-03-11T18:20:50.333Z,99486.38
2023-03-11T18:23:16.833Z,99485.31
2023-03-11T18:25:43.431Z,99492.56
2023-03-11T18:28:10.808Z,99490.38
2023-03-11T18:30:38.091Z,99492.00
2023-03-11T18:33:04.928Z,99487.22
2023-03-11T18:35:31.413Z,99484.53
2023-03-11T18:37:57.949Z,99490.56
2023-03-11T18:40:24.409Z,99493.63
2023-03-11T18:42:54.009Z,99492.97
2023-03-11T18:45:20.516Z,99492.00
2023-03-11T18:47:47.018Z,99496.91
2023-03-11T18:50:13.478Z,99495.66
2023-03-11T18:52:40.013Z,99502.34
2023-03-11T18:55:07.078Z,99490.19
2023-03-11T18:57:33.547Z,99496.31
2023-03-11T19:00:00.185Z,99499.47
2023-03-11T19:02:26.655Z,99502.06
2023-03-11T19:04:53.189Z,99504.84
2023-03-11T19:07:19.843Z,99495.28
2023-03-11T19:09:48.650Z,99510.69
2023-03-11T19:12:15.120Z,99505.22
2023-03-11T19:14:41.660Z,99515.53
2023-03-11T19:17:08.235Z,99504.19
2023-03-11T19:19:34.885Z,99512.84
2023-03-11T19:22:01.492Z,99515.16
2023-03-11T19:24:28.028Z,99516.03
2023-03-11T19:26:54.661Z,99515.56
2023-03-11T19:29:23.739Z,99517.44
2023-03-11T19:31:50.580Z,99521.97
2023-03-11T19:34:17.213Z,99523.59
2023-03-11T19:36:43.811Z,99531.63
2023-03-11T19:39:10.338Z,99528.66
2023-03-11T19:41:36.910Z,99523.84
2023-03-11T19:44:04.314Z,99530.94
2023-03-11T19:46:34.403Z,99536.13
2023-03-11T19:49:01.023Z,99522.06
2023-03-11T19:51:32.924Z,99533.47
2023-03-11T19:54:05.564Z,99528.44
2023-03-11T19:56:32.155Z,99526.13
2023-03-11T19:58:58.623Z,99532.66
2023-03-11T20:01:28.155Z,99538.19
2023-03-11T20:03:54.671Z,99535.81
2023-03-11T20:06:22.720Z,99539.94
2023-03-11T20:08:49.994Z,99547.28
2023-03-11T20:11:16.718Z,99543.19
2023-03-11T20:13:44.056Z,99543.38
2023-03-11T20:16:14.107Z,99543.06
2023-03-11T20:18:41.489Z,99535.16
2023-03-11T20:21:09.957Z,99542.97
2023-03-11T20:23:37.100Z,99536.28
2023-03-11T20:26:08.786Z,99536.00
2023-03-11T20:28:35.465Z,99536.94
2023-03-11T20:31:14.280Z,99527.50
2023-03-11T20:33:40.848Z,99540.13
2023-03-11T20:36:09.898Z,99540.78
2023-03-11T20:38:36.873Z,99535.53
2023-03-11T20:41:08.005Z,99538.19
2023-03-11T20:43:35.604Z,99539.53
2023-03-11T20:46:02.320Z,99532.91
2023-03-11T20:48:29.585Z,99523.75
2023-03-11T20:51:24.359Z,99525.94
2023-03-11T20:53:51.407Z,99529.13
2023-03-11T20:56:20.765Z,99520.69
2023-03-11T20:58:50.726Z,99514.38
2023-03-11T21:01:26.999Z,99516.69
2023-03-11T21:03:58.806Z,99507.59
2023-03-11T21:06:38.262Z,99512.88
2023-03-11T21:09:15.187Z,99500.59
2023-03-11T21:11:42.276Z,99496.38
2023-03-11T21:14:09.495Z,99498.88
2023-03-11T21:16:40.066Z,99496.22
2023-03-11T21:19:08.721Z,99501.09
2023-03-11T21:21:35.654Z,99493.63
2023-03-11T21:24:02.418Z,99484.06
2023-03-11T21:26:29.008Z,99486.16
2023-03-11T21:28:55.650Z,99483.66
2023-03-11T21:31:25.615Z,99488.56
2023-03-11T21:33:55.103Z,99474.28
2023-03-11T21:36:22.165Z,99478.50
2023-03-11T21:38:49.703Z,99480.03
2023-03-11T21:41:18.504Z,99484.94
2023-03-11T21:43:45.830Z,99480.50
2023-03-11T21:46:18.896Z,99483.09
2023-03-11T21:48:46.478Z,99484.06
2023-03-11T21:51:13.691Z,99476.31
2023-03-11T21:53:40.284Z,99492.56
2023-03-11T21:56:07.246Z,99484.44
2023-03-11T21:58:33.982Z,99491.59
2023-03-11T22:01:00.978Z,99482.50
2023-03-11T22:03:28.065Z,99476.47
2023-03-11T22:06:02.684Z,99460.88
2023-03-11T22:08:29.730Z,99464.09
2023-03-11T22:10:56.785Z,99464.28
2023-03-11T22:13:24.341Z,99455.88
2023-03-11T22:15:51.131Z,99463.91
2023-03-11T22:18:19.354Z,99456.19
2023-03-11T22:20:46.125Z,99456.47
2023-03-11T22:23:12.623Z,99449.28
2023-03-11T22:25:39.114Z,99441.25
2023-03-11T22:28:05.648Z,99445.91
2023-03-11T22:30:32.142Z,99442.19
2023-03-11T22:32:58.631Z,99429.88
2023-03-11T22:35:25.120Z,99437.38
2023-03-11T22:37:51.660Z,99423.13
2023-03-11T22:40:18.181Z,99421.03
2023-03-11T22:42:44.697Z,99412.84
2023-03-11T22:45:11.427Z,99408.44
2023-03-11T22:47:37.917Z,99403.47
2023-03-11T22:50:04.763Z,99395.44
2023-03-11T22:52:31.244Z,99403.28
2023-03-11T22:54:57.703Z,99399.94
2023-03-11T22:57:24.196Z,99397.09
2023-03-11T22:59:50.651Z,99393.47
2023-03-11T23:02:17.140Z,99397.59
2023-03-11T23:04:46.463Z,99396.06
2023-03-11T23:07:13.033Z,99403.38
2023-03-11T23:09:39.617Z,99384.69
2023-03-11T23:12:06.983Z,99391.31
2023-03-11T23:14:44.417Z,99383.94
2023-03-11T23:17:11.747Z,99375.50
2023-03-11T23:19:38.280Z,99383.34
2023-03-11T23:22:04.893Z,99387.34
2023-03-11T23:24:31.389Z,99385.56
2023-03-11T23:26:57.895Z,99385.34
2023-03-11T23:29:24.347Z,99378.97
2023-03-11T23:31:50.829Z,99395.41
2023-03-11T23:34:17.316Z,99379.81
2023-03-11T23:36:43.777Z,99407.09
2023-03-11T23:39:10.286Z,99387.38
2023-03-11T23:41:37.893Z,99388.72
2023-03-11T23:44:04.828Z,99377.53
2023-03-11T23:46:31.777Z,99399.34
2023-03-11T23:48:58.556Z,99410.25
2023-03-11T23:51:25.088Z,99397.03
2023-03-11T23:53:51.599Z,99396.19
2023-03-11T23:56:19.081Z,99394.19
2023-03-11T23:58:46.490Z,99395.25
